createdAt,value
2022-12-18T00:01:46.315Z,39.17
2022-12-18T00:04:48.416Z,43.58
2022-12-18T00:07:50.573Z,33.60
2022-12-18T00:10:52.624Z,36.53
2022-12-18T00:13:57.562Z,31.90
2022-12-18T00:17:01.837Z,29.45
2022-12-18T00:20:04.694Z,31.75
2022-12-18T00:23:08.028Z,31.08
2022-12-18T00:26:19.882Z,31.80
2022-12-18T00:29:21.811Z,28.02
2022-12-18T00:32:24.127Z,28.38
2022-12-18T00:35:26.260Z,28.85
2022-12-18T00:38:30.010Z,29.63
2022-12-18T00:41:50.880Z,29.38
2022-12-18T00:44:53.021Z,32.47
2022-12-18T00:47:55.739Z,24.35
2022-12-18T00:50:58.818Z,30.55
2022-12-18T00:54:01.033Z,29.00
2022-12-18T00:57:03.829Z,22.77
2022-12-18T01:00:09.013Z,24.35
2022-12-18T01:03:15.147Z,32.10
2022-12-18T01:06:19.641Z,26.33
2022-12-18T01:09:22.288Z,22.77
2022-12-18T01:12:24.475Z,29.17
2022-12-18T01:15:27.162Z,21.55
2022-12-18T01:18:29.279Z,23.85
2022-12-18T01:21:34.196Z,25.00
2022-12-18T01:24:39.640Z,25.30
2022-12-18T01:27:41.798Z,24.38
2022-12-18T01:30:43.771Z,29.38
2022-12-18T01:33:46.756Z,26.50
2022-12-18T01:36:48.803Z,24.40
2022-12-18T01:39:51.216Z,26.20
2022-12-18T01:42:54.533Z,29.30
2022-12-18T01:46:00.336Z,26.20
2022-12-18T01:49:02.928Z,29.20
2022-12-18T01:52:05.016Z,25.65
2022-12-18T01:55:09.409Z,25.98
2022-12-18T01:58:11.526Z,32.67
2022-12-18T02:01:15.139Z,29.98
2022-12-18T02:04:21.423Z,26.25
2022-12-18T02:07:33.119Z,34.45
2022-12-18T02:10:54.551Z,29.50
2022-12-18T02:14:31.509Z,20.40
2022-12-18T02:17:48.538Z,22.95
2022-12-18T02:21:16.382Z,26.40
2022-12-18T02:24:41.357Z,23.95
2022-12-18T02:27:47.651Z,23.40
2022-12-18T02:30:54.560Z,28.95
2022-12-18T02:34:02.629Z,29.33
2022-12-18T02:37:13.490Z,25.67
2022-12-18T02:40:18.317Z,28.23
2022-12-18T02:43:20.746Z,33.35
2022-12-18T02:46:42.875Z,29.23
2022-12-18T02:50:11.316Z,23.13
2022-12-18T02:53:24.879Z,32.15
2022-12-18T02:56:36.286Z,29.02
2022-12-18T02:59:48.928Z,26.85
2022-12-18T03:03:03.327Z,29.15
2022-12-18T03:06:38.590Z,32.78
2022-12-18T03:09:44.910Z,27.70
2022-12-18T03:12:55.814Z,27.27
2022-12-18T03:16:00.810Z,28.63
2022-12-18T03:19:07.964Z,29.15
2022-12-18T03:22:11.801Z,37.22
2022-12-18T03:25:22.634Z,25.80
2022-12-18T03:28:35.092Z,31.52
2022-12-18T03:31:44.129Z,35.60
2022-12-18T03:34:50.661Z,29.33
2022-12-18T03:37:55.740Z,34.80
2022-12-18T03:41:08.829Z,30.52
2022-12-18T03:44:38.605Z,31.95
2022-12-18T03:48:02.743Z,33.95
2022-12-18T03:51:23.708Z,39.35
2022-12-18T03:54:28.463Z,26.65
2022-12-18T03:57:39.896Z,30.98
2022-12-18T04:00:44.756Z,34.78
2022-12-18T04:03:51.287Z,31.42
2022-12-18T04:06:56.481Z,30.00
2022-12-18T04:10:02.078Z,29.33
2022-12-18T04:13:06.282Z,29.33
2022-12-18T04:16:10.655Z,30.88
2022-12-18T04:19:16.757Z,32.38
2022-12-18T04:22:21.705Z,31.35
2022-12-18T04:25:29.394Z,32.17
2022-12-18T04:28:41.608Z,33.83
2022-12-18T04:31:44.648Z,34.25
2022-12-18T04:34:47.390Z,37.80
2022-12-18T04:37:49.510Z,30.58
2022-12-18T04:40:51.989Z,31.10
2022-12-18T04:47:02.674Z,36.78
2022-12-18T04:50:05.371Z,36.10
2022-12-18T04:53:07.758Z,33.13
2022-12-18T04:56:12.903Z,36.03
2022-12-18T04:59:14.946Z,34.58
2022-12-18T05:02:17.190Z,34.88
2022-12-18T05:05:19.255Z,36.47
2022-12-18T05:08:21.497Z,39.20
2022-12-18T05:11:23.699Z,35.03
2022-12-18T05:14:26.048Z,35.10
2022-12-18T05:17:28.062Z,30.98
2022-12-18T05:20:30.224Z,34.63
2022-12-18T05:23:37.602Z,40.00
2022-12-18T05:26:40.180Z,34.88
2022-12-18T05:29:43.699Z,36.53
2022-12-18T05:32:45.767Z,40.03
2022-12-18T05:35:56.181Z,35.85
2022-12-18T05:38:58.255Z,37.50
2022-12-18T05:42:00.368Z,37.67
2022-12-18T05:45:02.471Z,35.78
2022-12-18T05:48:05.285Z,41.42
2022-12-18T05:51:15.640Z,36.13
2022-12-18T05:54:17.723Z,32.17
2022-12-18T05:57:19.778Z,40.05
2022-12-18T06:00:21.846Z,34.80
2022-12-18T06:03:26.837Z,44.08
2022-12-18T06:06:31.361Z,39.25
2022-12-18T06:09:33.609Z,39.55
2022-12-18T06:12:35.801Z,38.05
2022-12-18T06:15:38.649Z,37.65
2022-12-18T06:18:40.710Z,36.63
2022-12-18T06:21:42.951Z,40.25
2022-12-18T06:24:44.907Z,48.13
2022-12-18T06:27:49.183Z,38.45
2022-12-18T06:30:51.652Z,40.30
2022-12-18T06:33:53.898Z,42.50
2022-12-18T06:36:56.056Z,47.63
2022-12-18T06:39:58.264Z,41.97
2022-12-18T06:43:00.420Z,46.20
2022-12-18T06:46:03.229Z,46.80
2022-12-18T06:49:05.453Z,40.53
2022-12-18T06:52:07.654Z,50.13
2022-12-18T06:55:09.761Z,48.00
2022-12-18T06:58:11.710Z,41.03
2022-12-18T07:01:15.105Z,36.20
2022-12-18T07:04:17.251Z,42.83
2022-12-18T07:07:20.742Z,38.38
2022-12-18T07:10:25.962Z,36.25
2022-12-18T07:13:28.356Z,35.40
2022-12-18T07:16:30.662Z,39.10
2022-12-18T07:19:37.396Z,43.47
2022-12-18T07:22:41.421Z,25.35
2022-12-18T07:25:43.884Z,21.23
2022-12-18T07:28:47.717Z,38.95
2022-12-18T07:31:52.232Z,40.42
2022-12-18T07:34:54.246Z,42.83
2022-12-18T07:37:56.392Z,36.47
2022-12-18T07:41:07.446Z,46.85
2022-12-18T07:44:13.673Z,40.33
2022-12-18T07:47:20.999Z,39.90
2022-12-18T07:50:27.447Z,38.92
2022-12-18T07:53:37.177Z,46.35
2022-12-18T07:56:39.752Z,36.90
2022-12-18T07:59:41.887Z,40.28
2022-12-18T08:02:44.229Z,44.42
2022-12-18T08:05:49.423Z,40.25
2022-12-18T08:08:55.677Z,41.60
2022-12-18T08:11:59.713Z,36.85
2022-12-18T08:15:02.073Z,46.63
2022-12-18T08:18:05.983Z,39.78
2022-12-18T08:21:17.390Z,37.65
2022-12-18T08:24:20.852Z,35.03
2022-12-18T08:27:30.415Z,44.53
2022-12-18T08:30:32.728Z,40.28
2022-12-18T08:33:36.055Z,35.58
2022-12-18T08:36:38.184Z,40.00
2022-12-18T08:39:40.291Z,39.92
2022-12-18T08:43:02.969Z,33.25
2022-12-18T08:46:09.292Z,33.65
2022-12-18T08:49:13.764Z,35.78
2022-12-18T08:52:16.273Z,34.97
2022-12-18T08:55:20.279Z,38.55
2022-12-18T08:58:25.657Z,30.50
2022-12-18T09:01:29.690Z,31.80
2022-12-18T09:04:31.917Z,35.17
2022-12-18T09:07:41.786Z,39.78
2022-12-18T09:10:49.083Z,34.25
2022-12-18T09:13:51.291Z,34.20
2022-12-18T09:16:53.386Z,36.20
2022-12-18T09:19:55.702Z,32.78
2022-12-18T09:23:09.910Z,34.22
2022-12-18T09:26:13.412Z,33.13
2022-12-18T09:29:18.466Z,32.13
2022-12-18T09:32:22.733Z,33.97
2022-12-18T09:35:25.738Z,28.88
2022-12-18T09:38:27.818Z,39.33
2022-12-18T09:41:52.025Z,36.35
2022-12-18T09:44:55.551Z,43.17
2022-12-18T09:48:05.148Z,45.97
2022-12-18T09:51:17.295Z,46.92
2022-12-18T09:54:25.714Z,48.55
2022-12-18T09:57:35.827Z,36.47
2022-12-18T10:04:25.681Z,91.85
2022-12-18T10:07:49.328Z,48.17
2022-12-18T10:11:17.139Z,38.45
2022-12-18T10:14:45.538Z,38.97
2022-12-18T10:18:18.776Z,48.25
2022-12-18T10:21:42.767Z,40.00
2022-12-18T10:24:56.616Z,49.85
2022-12-18T10:28:14.613Z,43.50
2022-12-18T10:31:20.397Z,36.00
2022-12-18T10:34:26.045Z,43.95
2022-12-18T10:37:31.042Z,41.75
2022-12-18T10:41:12.615Z,36.72
2022-12-18T10:44:37.738Z,33.45
2022-12-18T10:47:50.917Z,33.92
2022-12-18T10:51:12.896Z,31.85
2022-12-18T10:54:24.326Z,32.17
2022-12-18T10:57:42.999Z,30.38
2022-12-18T11:00:45.893Z,24.27
2022-12-18T11:04:02.664Z,34.30
2022-12-18T11:07:10.015Z,28.63
2022-12-18T11:10:19.913Z,27.15
2022-12-18T11:13:25.107Z,24.02
2022-12-18T11:16:29.032Z,34.83
2022-12-18T11:19:40.041Z,25.83
2022-12-18T11:22:56.869Z,27.63
2022-12-18T11:26:02.747Z,24.88
2022-12-18T11:29:18.223Z,18.42
2022-12-18T11:32:33.776Z,26.73
2022-12-18T11:35:44.645Z,26.58
2022-12-18T11:38:48.240Z,18.00
2022-12-18T11:42:12.789Z,22.45
2022-12-18T11:45:15.505Z,21.65
2022-12-18T11:48:33.635Z,25.95
2022-12-18T11:51:46.702Z,27.08
2022-12-18T11:54:52.871Z,24.30
2022-12-18T11:58:04.248Z,27.33
2022-12-18T12:01:27.454Z,31.75
2022-12-18T12:04:44.901Z,31.80
2022-12-18T12:08:07.514Z,29.83
2022-12-18T12:11:20.370Z,34.67
2022-12-18T12:14:40.463Z,26.33
2022-12-18T12:17:45.928Z,23.65
2022-12-18T12:20:47.993Z,29.02
2022-12-18T12:24:25.553Z,25.25
2022-12-18T12:27:38.398Z,25.52
2022-12-18T12:31:00.871Z,32.42
2022-12-18T12:34:17.375Z,28.65
2022-12-18T12:37:47.360Z,44.40
2022-12-18T12:41:02.437Z,38.70
2022-12-18T12:44:11.618Z,28.20
2022-12-18T12:47:21.842Z,33.53
2022-12-18T12:50:24.856Z,26.92
2022-12-18T12:53:37.483Z,31.85
2022-12-18T12:56:49.599Z,28.95
2022-12-18T13:00:07.678Z,38.72
2022-12-18T13:03:22.301Z,37.50
2022-12-18T13:06:51.948Z,40.25
2022-12-18T13:10:17.201Z,41.80
2022-12-18T13:13:23.249Z,42.00
2022-12-18T13:16:28.868Z,38.55
2022-12-18T13:19:32.433Z,43.97
2022-12-18T13:22:43.134Z,31.27
2022-12-18T13:25:45.243Z,32.92
2022-12-18T13:28:47.375Z,34.65
2022-12-18T13:31:49.457Z,29.75
2022-12-18T13:35:19.705Z,37.72
2022-12-18T13:38:33.731Z,49.55
2022-12-18T13:41:35.823Z,42.60
2022-12-18T13:44:43.103Z,26.10
2022-12-18T13:47:45.506Z,29.23
2022-12-18T13:51:01.799Z,32.13
2022-12-18T13:54:21.311Z,31.35
2022-12-18T13:57:32.895Z,35.00
2022-12-18T14:00:35.735Z,29.17
2022-12-18T14:03:38.978Z,36.58
2022-12-18T14:06:41.588Z,29.17
2022-12-18T14:09:50.109Z,31.42
2022-12-18T14:13:00.365Z,34.55
2022-12-18T14:16:08.681Z,34.35
2022-12-18T14:19:16.977Z,33.75
2022-12-18T14:22:31.931Z,38.35
2022-12-18T14:25:36.439Z,34.75
2022-12-18T14:28:45.397Z,33.60
2022-12-18T14:31:47.996Z,31.83
2022-12-18T14:34:52.958Z,38.45
2022-12-18T14:37:55.368Z,34.95
2022-12-18T14:41:20.694Z,43.50
2022-12-18T14:44:22.822Z,43.85
2022-12-18T14:47:24.902Z,40.78
2022-12-18T14:50:27.661Z,41.50
2022-12-18T14:53:54.420Z,39.03
2022-12-18T14:57:24.454Z,49.72
2022-12-18T15:00:27.282Z,37.78
2022-12-18T15:03:29.612Z,37.80
2022-12-18T15:06:31.727Z,41.38
2022-12-18T15:09:34.145Z,42.38
2022-12-18T15:12:42.724Z,36.17
2022-12-18T15:18:50.869Z,36.83
2022-12-18T15:21:53.001Z,32.72
2022-12-18T15:25:00.047Z,35.78
2022-12-18T15:28:02.341Z,39.63
2022-12-18T15:31:24.230Z,33.30
2022-12-18T15:34:30.939Z,36.60
2022-12-18T15:37:32.956Z,33.63
2022-12-18T15:40:34.979Z,33.15
2022-12-18T15:43:39.597Z,33.25
2022-12-18T15:46:41.913Z,30.77
2022-12-18T15:49:44.092Z,29.48
2022-12-18T15:52:48.848Z,29.38
2022-12-18T15:56:09.503Z,35.00
2022-12-18T15:59:15.757Z,33.50
2022-12-18T16:02:20.225Z,27.17
2022-12-18T16:05:24.416Z,30.60
2022-12-18T16:08:26.487Z,26.95
2022-12-18T16:11:39.819Z,32.78
2022-12-18T16:14:42.289Z,30.58
2022-12-18T16:17:45.419Z,25.40
2022-12-18T16:20:49.949Z,28.58
2022-12-18T16:23:52.059Z,23.55
2022-12-18T16:26:55.850Z,26.55
2022-12-18T16:29:59.735Z,29.05
2022-12-18T16:33:02.756Z,28.83
2022-12-18T16:36:04.974Z,26.83
2022-12-18T16:39:07.271Z,28.27
2022-12-18T16:42:20.790Z,29.05
2022-12-18T16:45:24.593Z,29.20
2022-12-18T16:48:28.177Z,23.75
2022-12-18T16:51:31.733Z,29.23
2022-12-18T16:54:39.547Z,29.02
2022-12-18T16:57:41.568Z,31.95
2022-12-18T17:00:50.973Z,30.38
2022-12-18T17:03:58.677Z,29.27
2022-12-18T17:07:00.864Z,26.93
2022-12-18T17:10:03.277Z,27.85
2022-12-18T17:13:05.842Z,33.50
2022-12-18T17:16:12.395Z,27.63
2022-12-18T17:19:17.666Z,21.92
2022-12-18T17:22:21.453Z,23.17
2022-12-18T17:25:23.557Z,30.83
2022-12-18T17:28:28.281Z,26.52
2022-12-18T17:31:35.289Z,30.88
2022-12-18T17:34:37.898Z,30.33
2022-12-18T17:37:39.970Z,27.63
2022-12-18T17:40:46.233Z,27.42
2022-12-18T17:44:07.762Z,27.20
2022-12-18T17:47:12.254Z,25.63
2022-12-18T17:50:16.336Z,18.63
2022-12-18T17:53:18.658Z,18.30
2022-12-18T17:56:23.497Z,21.42
2022-12-18T17:59:25.802Z,18.80
2022-12-18T18:02:29.497Z,20.30
2022-12-18T18:05:32.324Z,19.38
2022-12-18T18:08:35.641Z,16.73
2022-12-18T18:11:58.208Z,15.75
2022-12-18T18:15:00.336Z,21.67
2022-12-18T18:18:05.902Z,13.00
2022-12-18T18:21:09.063Z,19.90
2022-12-18T18:24:17.770Z,19.48
2022-12-18T18:27:20.128Z,12.55
2022-12-18T18:30:22.630Z,16.52
2022-12-18T18:33:24.850Z,19.00
2022-12-18T18:36:27.578Z,17.05
2022-12-18T18:39:29.774Z,15.65
2022-12-18T18:42:32.834Z,15.98
2022-12-18T18:45:34.935Z,16.65
2022-12-18T18:48:37.868Z,15.25
2022-12-18T18:51:42.521Z,11.75
2022-12-18T18:55:11.165Z,17.02
2022-12-18T18:58:06.849Z,19.20
2022-12-18T19:01:13.225Z,13.45
2022-12-18T19:04:15.391Z,13.65
2022-12-18T19:07:26.554Z,15.20
2022-12-18T19:10:33.824Z,13.02
2022-12-18T19:13:37.128Z,11.07
2022-12-18T19:16:44.580Z,12.90
2022-12-18T19:19:48.162Z,15.68
2022-12-18T19:22:55.025Z,15.13
2022-12-18T19:26:28.831Z,12.60
2022-12-18T19:29:29.728Z,11.90
2022-12-18T19:32:31.965Z,10.50
2022-12-18T19:35:34.120Z,16.30
2022-12-18T19:38:36.437Z,12.55
2022-12-18T19:41:39.070Z,19.45
2022-12-18T19:44:41.891Z,21.48
2022-12-18T19:47:44.421Z,15.27
2022-12-18T19:50:50.633Z,16.08
2022-12-18T19:53:58.967Z,19.13
2022-12-18T19:57:03.083Z,18.00
2022-12-18T20:00:05.801Z,13.55
2022-12-18T20:03:24.267Z,14.95
2022-12-18T20:06:51.731Z,22.10
2022-12-18T20:13:32.134Z,12.57
2022-12-18T20:17:23.233Z,16.63
2022-12-18T20:23:28.225Z,18.85
2022-12-18T20:26:31.038Z,14.50
2022-12-18T20:29:33.827Z,16.20
2022-12-18T20:32:37.239Z,17.00
2022-12-18T20:35:39.499Z,17.00
2022-12-18T20:38:42.192Z,17.13
2022-12-18T20:41:46.405Z,23.40
2022-12-18T20:44:50.972Z,16.40
2022-12-18T20:47:56.097Z,22.63
2022-12-18T20:51:06.691Z,20.63
2022-12-18T20:54:11.942Z,21.10
2022-12-18T20:57:17.542Z,17.35
2022-12-18T21:00:21.356Z,21.02
2022-12-18T21:03:27.119Z,25.90
2022-12-18T21:06:29.660Z,23.63
2022-12-18T21:09:38.001Z,24.92
2022-12-18T21:13:00.112Z,20.50
2022-12-18T21:16:07.922Z,25.00
2022-12-18T21:19:25.815Z,27.83
2022-12-18T21:22:30.593Z,22.15
2022-12-18T21:25:33.595Z,25.83
2022-12-18T21:28:36.162Z,23.60
2022-12-18T21:31:39.297Z,25.88
2022-12-18T21:34:47.861Z,25.90
2022-12-18T21:37:50.437Z,26.13
2022-12-18T21:40:55.496Z,24.30
2022-12-18T21:44:15.389Z,25.38
2022-12-18T21:47:22.272Z,23.10
2022-12-18T21:50:25.786Z,24.27
2022-12-18T21:53:28.666Z,23.13
2022-12-18T21:56:56.992Z,20.58
2022-12-18T21:59:59.099Z,22.48
2022-12-18T22:03:17.930Z,22.63
2022-12-18T22:06:22.825Z,19.27
2022-12-18T22:09:25.742Z,21.60
2022-12-18T22:12:43.349Z,21.05
2022-12-18T22:15:47.255Z,23.13
2022-12-18T22:18:50.008Z,23.48
2022-12-18T22:21:53.088Z,19.92
2022-12-18T22:24:55.816Z,18.80
2022-12-18T22:28:25.224Z,23.65
2022-12-18T22:31:27.331Z,17.10
2022-12-18T22:34:34.224Z,23.90
2022-12-18T22:37:38.568Z,22.02
2022-12-18T22:40:41.097Z,25.45
2022-12-18T22:43:43.336Z,21.35
2022-12-18T22:46:53.065Z,17.25
2022-12-18T22:50:07.018Z,20.55
2022-12-18T22:53:09.422Z,25.85
2022-12-18T22:56:20.126Z,14.13
2022-12-18T22:59:24.071Z,16.27
2022-12-18T23:02:28.999Z,22.23
2022-12-18T23:05:31.533Z,19.10
2022-12-18T23:08:34.872Z,19.38
2022-12-18T23:11:37.507Z,18.88
2022-12-18T23:14:39.998Z,16.75
2022-12-18T23:17:44.472Z,19.73
2022-12-18T23:20:48.687Z,22.10
2022-12-18T23:23:51.008Z,20.17
2022-12-18T23:26:53.280Z,19.30
2022-12-18T23:29:57.146Z,26.02
2022-12-18T23:33:01.231Z,21.85
2022-12-18T23:36:04.831Z,21.50
2022-12-18T23:39:08.699Z,25.63
2022-12-18T23:42:12.898Z,23.17
2022-12-18T23:45:18.135Z,20.33
2022-12-18T23:48:22.107Z,20.90
2022-12-18T23:51:28.476Z,18.83
2022-12-18T23:54:33.514Z,22.02
2022-12-18T23:57:36.255Z,28.20
